createdAt,value
2019-01-28T00:01:40.342Z,93950.05
2019-01-28T00:04:07.384Z,93954.61
2019-01-28T00:06:34.628Z,93959.42
2019-01-28T00:09:02.579Z,93962.38
2019-01-28T00:11:29.636Z,93962.94
2019-01-28T00:13:56.755Z,93962.41
2019-01-28T00:16:23.797Z,93966.47
2019-01-28T00:18:50.841Z,93972.06
2019-01-28T00:21:17.895Z,93970.48
2019-01-28T00:23:44.919Z,93981.10
2019-01-28T00:26:11.960Z,93977.37
2019-01-28T00:28:38.999Z,93976.56
2019-01-28T00:31:06.063Z,93982.68
2019-01-28T00:33:33.089Z,93977.09
2019-01-28T00:36:00.131Z,93987.99
2019-01-28T00:38:27.182Z,93986.44
2019-01-28T00:40:54.238Z,93995.48
2019-01-28T00:43:21.325Z,93991.28
2019-01-28T00:45:48.370Z,93996.59
2019-01-28T00:48:16.673Z,94001.66
2019-01-28T00:50:43.890Z,94001.90
2019-01-28T00:53:10.957Z,94007.98
2019-01-28T00:55:37.985Z,94005.05
2019-01-28T00:58:05.060Z,94003.45
2019-01-28T01:00:32.194Z,94012.50
2019-01-28T01:02:59.234Z,94020.46
2019-01-28T01:05:26.284Z,94029.23
2019-01-28T01:07:53.342Z,94030.89
2019-01-28T01:10:20.399Z,94043.67
2019-01-28T01:12:47.457Z,94044.01
2019-01-28T01:15:14.678Z,94049.34
2019-01-28T01:17:42.134Z,94049.95
2019-01-28T01:20:10.817Z,94059.25
2019-01-28T01:22:37.890Z,94062.16
2019-01-28T01:25:05.049Z,94078.41
2019-01-28T01:27:32.078Z,94079.98
2019-01-28T01:29:59.136Z,94083.44
2019-01-28T01:32:26.210Z,94078.63
2019-01-28T01:34:53.270Z,94082.05
2019-01-28T01:37:20.319Z,94094.78
2019-01-28T01:39:47.353Z,94100.59
2019-01-28T01:42:14.403Z,94107.23
2019-01-28T01:44:41.439Z,94111.22
2019-01-28T01:47:08.509Z,94120.52
2019-01-28T01:49:35.547Z,94132.19
2019-01-28T01:52:02.601Z,94150.23
2019-01-28T01:54:29.633Z,94158.94
2019-01-28T01:56:56.690Z,94164.32
2019-01-28T01:59:23.728Z,94176.44
2019-01-28T02:01:50.805Z,94185.34
2019-01-28T02:04:17.861Z,94179.11
2019-01-28T02:06:44.930Z,94208.87
2019-01-28T02:09:11.967Z,94200.77
2019-01-28T02:11:39.013Z,94196.06
2019-01-28T02:14:06.052Z,94208.23
2019-01-28T02:16:33.093Z,94197.20
2019-01-28T02:19:00.131Z,94199.77
2019-01-28T02:21:27.167Z,94205.36
2019-01-28T02:23:54.237Z,94207.53
2019-01-28T02:26:21.292Z,94192.63
2019-01-28T02:28:48.349Z,94210.09
2019-01-28T02:31:15.391Z,94203.70
2019-01-28T02:33:42.416Z,94210.90
2019-01-28T02:36:09.435Z,94210.90
2019-01-28T02:38:36.471Z,94225.19
2019-01-28T02:41:03.617Z,94221.73
2019-01-28T02:43:30.672Z,94228.36
2019-01-28T02:45:57.728Z,94250.38
2019-01-28T02:48:24.769Z,94242.16
2019-01-28T02:50:51.839Z,94242.67
2019-01-28T02:53:18.897Z,94255.22
2019-01-28T02:55:46.056Z,94252.28
2019-01-28T02:58:13.100Z,94250.11
2019-01-28T03:00:40.153Z,94247.16
2019-01-28T03:03:07.180Z,94250.56
2019-01-28T03:05:34.214Z,94253.17
2019-01-28T03:08:01.247Z,94253.98
2019-01-28T03:10:28.276Z,94267.75
2019-01-28T03:12:55.321Z,94263.78
2019-01-28T03:15:22.455Z,94263.83
2019-01-28T03:17:49.518Z,94274.95
2019-01-28T03:20:16.891Z,94277.70
2019-01-28T03:22:43.948Z,94272.04
2019-01-28T03:25:11.464Z,94273.59
2019-01-28T03:27:40.375Z,94279.14
2019-01-28T03:30:10.316Z,94287.56
2019-01-28T03:32:37.551Z,94293.85
2019-01-28T03:35:04.850Z,94294.61
2019-01-28T03:37:31.858Z,94275.25
2019-01-28T03:39:58.885Z,94294.09
2019-01-28T03:42:25.934Z,94288.50
2019-01-28T03:44:53.016Z,94292.94
2019-01-28T03:47:20.071Z,94285.77
2019-01-28T03:49:47.111Z,94285.20
2019-01-28T03:52:16.278Z,94287.86
2019-01-28T03:54:43.310Z,94287.57
2019-01-28T03:57:10.337Z,94287.28
2019-01-28T03:59:37.377Z,94294.42
2019-01-28T04:02:04.426Z,94294.42
2019-01-28T04:04:31.456Z,94295.70
2019-01-28T04:06:58.509Z,94297.26
2019-01-28T04:09:25.538Z,94295.94
2019-01-28T04:11:52.598Z,94300.14
2019-01-28T04:14:19.631Z,94296.17
2019-01-28T04:16:46.680Z,94298.02
2019-01-28T04:19:13.726Z,94297.95
2019-01-28T04:21:40.777Z,94302.97
2019-01-28T04:24:07.823Z,94305.33
2019-01-28T04:26:34.849Z,94306.66
2019-01-28T04:29:01.910Z,94305.85
2019-01-28T04:31:28.960Z,94305.83
2019-01-28T04:33:56.012Z,94309.00
2019-01-28T04:36:23.075Z,94311.64
2019-01-28T04:38:50.099Z,94311.12
2019-01-28T04:41:17.131Z,94319.62
2019-01-28T04:43:44.215Z,94316.97
2019-01-28T04:46:11.279Z,94313.78
2019-01-28T04:48:38.381Z,94311.88
2019-01-28T04:51:05.433Z,94314.24
2019-01-28T04:53:32.468Z,94315.05
2019-01-28T04:55:59.516Z,94323.05
2019-01-28T04:58:26.577Z,94311.38
2019-01-28T05:00:53.605Z,94323.65
2019-01-28T05:03:20.645Z,94323.70
2019-01-28T05:05:47.695Z,94320.53
2019-01-28T05:08:14.751Z,94319.50
2019-01-28T05:10:41.820Z,94314.25
2019-01-28T05:13:08.877Z,94331.47
2019-01-28T05:15:35.925Z,94323.29
2019-01-28T05:18:03.091Z,94320.13
2019-01-28T05:20:30.168Z,94317.99
2019-01-28T05:22:57.201Z,94321.45
2019-01-28T05:25:24.237Z,94317.19
2019-01-28T05:27:51.271Z,94321.45
2019-01-28T05:30:22.464Z,94321.45
2019-01-28T05:32:49.458Z,94320.13
2019-01-28T05:35:17.066Z,94314.83
2019-01-28T05:37:44.117Z,94321.45
2019-01-28T05:40:13.766Z,94321.45
2019-01-28T05:42:40.806Z,94316.44
2019-01-28T05:45:09.174Z,94315.69
2019-01-28T05:47:36.214Z,94306.92
2019-01-28T05:50:04.638Z,94304.80
2019-01-28T05:52:31.671Z,94310.09
2019-01-28T05:54:58.724Z,94308.77
2019-01-28T05:57:25.773Z,94308.77
2019-01-28T05:59:52.836Z,94304.22
2019-01-28T06:02:19.892Z,94308.20
2019-01-28T06:04:46.927Z,94304.73
2019-01-28T06:07:13.983Z,94307.39
2019-01-28T06:09:41.024Z,94316.66
2019-01-28T06:12:08.081Z,94313.21
2019-01-28T06:14:35.231Z,94305.83
2019-01-28T06:17:02.278Z,94307.09
2019-01-28T06:19:29.327Z,94302.39
2019-01-28T06:21:56.354Z,94302.88
2019-01-28T06:24:23.952Z,94301.83
2019-01-28T06:26:50.989Z,94297.19
2019-01-28T06:29:18.084Z,94305.56
2019-01-28T06:31:45.121Z,94301.73
2019-01-28T06:34:12.210Z,94305.09
2019-01-28T06:36:39.238Z,94314.56
2019-01-28T06:39:08.793Z,94310.41
2019-01-28T06:41:35.824Z,94317.38
2019-01-28T06:44:02.999Z,94315.64
2019-01-28T06:46:30.066Z,94322.98
2019-01-28T06:48:57.107Z,94327.24
2019-01-28T06:51:24.218Z,94328.73
2019-01-28T06:53:51.262Z,94330.55
2019-01-28T06:56:18.345Z,94336.09
2019-01-28T06:58:45.403Z,94333.72
2019-01-28T07:01:12.473Z,94332.63
2019-01-28T07:03:39.549Z,94334.95
2019-01-28T07:06:06.615Z,94335.14
2019-01-28T07:08:33.666Z,94336.84
2019-01-28T07:11:00.726Z,94341.17
2019-01-28T07:13:27.785Z,94340.22
2019-01-28T07:15:54.819Z,94345.05
2019-01-28T07:18:21.873Z,94337.94
2019-01-28T07:20:48.912Z,94335.00
2019-01-28T07:23:15.975Z,94330.60
2019-01-28T07:25:43.057Z,94328.84
2019-01-28T07:28:10.116Z,94326.56
2019-01-28T07:30:37.184Z,94333.08
2019-01-28T07:33:04.456Z,94334.55
2019-01-28T07:35:31.536Z,94341.12
2019-01-28T07:37:58.604Z,94337.14
2019-01-28T07:40:25.655Z,94338.47
2019-01-28T07:42:52.691Z,94341.41
2019-01-28T07:45:23.200Z,94342.22
2019-01-28T07:47:50.252Z,94347.00
2019-01-28T07:50:17.290Z,94340.66
2019-01-28T07:52:44.352Z,94345.96
2019-01-28T07:55:13.249Z,94350.45
2019-01-28T07:57:40.472Z,94354.16
2019-01-28T08:00:11.251Z,94353.63
2019-01-28T08:02:38.306Z,94353.68
2019-01-28T08:05:06.874Z,94348.95
2019-01-28T08:07:33.927Z,94349.00
2019-01-28T08:10:00.982Z,94346.91
2019-01-28T08:12:28.055Z,94349.54
2019-01-28T08:14:55.120Z,94346.23
2019-01-28T08:17:22.160Z,94349.03
2019-01-28T08:19:49.247Z,94343.20
2019-01-28T08:22:16.302Z,94345.53
2019-01-28T08:24:43.378Z,94348.70
2019-01-28T08:27:10.412Z,94338.89
2019-01-28T08:29:37.492Z,94343.97
2019-01-28T08:32:04.564Z,94341.73
2019-01-28T08:34:31.647Z,94341.12
2019-01-28T08:36:58.710Z,94343.48
2019-01-28T08:39:25.783Z,94345.30
2019-01-28T08:41:52.842Z,94344.45
2019-01-28T08:44:19.901Z,94339.64
2019-01-28T08:46:46.945Z,94351.08
2019-01-28T08:49:14.002Z,94346.05
2019-01-28T08:51:41.067Z,94341.31
2019-01-28T08:54:08.182Z,94340.83
2019-01-28T08:56:35.240Z,94345.91
2019-01-28T08:59:02.304Z,94350.12
2019-01-28T09:01:29.361Z,94336.09
2019-01-28T09:03:56.433Z,94344.09
2019-01-28T09:06:23.501Z,94341.48
2019-01-28T09:08:50.583Z,94337.79
2019-01-28T09:11:17.665Z,94341.54
2019-01-28T09:13:44.745Z,94343.20
2019-01-28T09:16:11.812Z,94333.42
2019-01-28T09:18:38.908Z,94337.16
2019-01-28T09:21:06.009Z,94330.77
2019-01-28T09:23:33.057Z,94331.13
2019-01-28T09:26:00.114Z,94336.48
2019-01-28T09:28:27.168Z,94339.63
2019-01-28T09:30:54.245Z,94335.36
2019-01-28T09:33:21.303Z,94339.38
2019-01-28T09:35:48.370Z,94340.77
2019-01-28T09:38:15.433Z,94340.88
2019-01-28T09:40:42.491Z,94343.14
2019-01-28T09:43:09.559Z,94338.67
2019-01-28T09:45:41.038Z,94341.12
2019-01-28T09:48:10.070Z,94348.38
2019-01-28T09:50:37.139Z,94343.06
2019-01-28T09:53:04.306Z,94347.85
2019-01-28T09:55:31.355Z,94350.79
2019-01-28T09:57:58.395Z,94338.52
2019-01-28T10:00:32.085Z,94345.20
2019-01-28T10:02:59.160Z,94348.17
2019-01-28T10:05:26.248Z,94341.48
2019-01-28T10:07:53.318Z,94347.09
2019-01-28T10:10:20.503Z,94339.40
2019-01-28T10:12:47.556Z,94341.85
2019-01-28T10:15:16.208Z,94346.44
2019-01-28T10:17:43.260Z,94350.78
2019-01-28T10:20:19.308Z,94342.56
2019-01-28T10:22:46.369Z,94346.84
2019-01-28T10:25:13.647Z,94341.66
2019-01-28T10:27:40.717Z,94337.46
2019-01-28T10:30:09.044Z,94343.90
2019-01-28T10:32:36.434Z,94341.73
2019-01-28T10:35:04.031Z,94349.14
2019-01-28T10:37:31.104Z,94340.36
2019-01-28T10:39:58.171Z,94338.79
2019-01-28T10:42:25.257Z,94346.66
2019-01-28T10:44:52.330Z,94343.55
2019-01-28T10:47:19.382Z,94344.11
2019-01-28T10:49:46.458Z,94341.48
2019-01-28T10:52:13.508Z,94341.20
2019-01-28T10:54:40.582Z,94349.14
2019-01-28T10:57:07.638Z,94337.22
2019-01-28T10:59:34.708Z,94327.73
2019-01-28T11:02:01.809Z,94332.59
2019-01-28T11:04:28.858Z,94328.67
2019-01-28T11:06:55.916Z,94330.24
2019-01-28T11:09:23.002Z,94320.94
2019-01-28T11:11:50.146Z,94319.64
2019-01-28T11:14:17.334Z,94335.63
2019-01-28T11:16:44.501Z,94327.86
2019-01-28T11:19:11.700Z,94324.16
2019-01-28T11:21:38.747Z,94331.75
2019-01-28T11:24:06.119Z,94322.84
2019-01-28T11:26:33.155Z,94325.22
2019-01-28T11:29:00.266Z,94327.56
2019-01-28T11:31:27.376Z,94327.59
2019-01-28T11:33:54.447Z,94321.51
2019-01-28T11:36:21.493Z,94321.05
2019-01-28T11:38:48.761Z,94314.78
2019-01-28T11:41:15.895Z,94310.85
2019-01-28T11:43:42.923Z,94311.66
2019-01-28T11:46:10.133Z,94306.98
2019-01-28T11:48:37.263Z,94306.82
2019-01-28T11:51:04.503Z,94304.24
2019-01-28T11:53:31.555Z,94313.34
2019-01-28T11:55:58.635Z,94311.73
2019-01-28T11:58:25.699Z,94307.52
2019-01-28T12:01:01.242Z,94302.04
2019-01-28T12:03:28.725Z,94310.16
2019-01-28T12:05:55.816Z,94319.75
2019-01-28T12:08:22.862Z,94308.55
2019-01-28T12:10:49.959Z,94317.36
2019-01-28T12:13:17.015Z,94327.69
2019-01-28T12:15:44.089Z,94317.23
2019-01-28T12:18:11.130Z,94317.94
2019-01-28T12:20:38.205Z,94312.78
2019-01-28T12:23:05.351Z,94316.83
2019-01-28T12:25:32.421Z,94318.94
2019-01-28T12:27:59.471Z,94320.23
2019-01-28T12:30:27.212Z,94326.42
2019-01-28T12:32:54.279Z,94328.36
2019-01-28T12:35:21.453Z,94321.59
2019-01-28T12:37:48.535Z,94330.91
2019-01-28T12:40:15.716Z,94324.23
2019-01-28T12:42:42.770Z,94324.01
2019-01-28T12:45:12.557Z,94323.88
2019-01-28T12:47:39.587Z,94326.61
2019-01-28T12:50:06.980Z,94319.42
2019-01-28T12:52:34.046Z,94316.78
2019-01-28T12:55:01.095Z,94319.22
2019-01-28T12:57:28.144Z,94328.61
2019-01-28T12:59:55.296Z,94337.13
2019-01-28T13:02:22.340Z,94335.70
2019-01-28T13:04:49.406Z,94330.05
2019-01-28T13:07:16.444Z,94331.13
2019-01-28T13:09:43.542Z,94334.84
2019-01-28T13:12:10.602Z,94335.45
2019-01-28T13:14:37.654Z,94342.16
2019-01-28T13:17:04.757Z,94340.57
2019-01-28T13:19:31.792Z,94344.02
2019-01-28T13:21:58.857Z,94339.14
2019-01-28T13:24:25.926Z,94344.19
2019-01-28T13:26:52.988Z,94336.25
2019-01-28T13:29:22.526Z,94343.19
2019-01-28T13:31:49.556Z,94336.27
2019-01-28T13:34:16.605Z,94338.94
2019-01-28T13:36:43.667Z,94342.58
2019-01-28T13:39:11.066Z,94343.56
2019-01-28T13:41:39.871Z,94363.72
2019-01-28T13:44:15.689Z,94363.91
2019-01-28T13:46:44.760Z,94370.28
2019-01-28T13:49:21.839Z,94363.34
2019-01-28T13:51:48.896Z,94370.81
2019-01-28T13:54:15.973Z,94373.72
2019-01-28T13:56:43.046Z,94370.87
2019-01-28T13:59:16.084Z,94367.77
2019-01-28T14:01:39.325Z,94373.12
2019-01-28T14:04:06.435Z,94359.11
2019-01-28T14:06:33.491Z,94365.23
2019-01-28T14:09:00.568Z,94367.86
2019-01-28T14:11:27.689Z,94359.56
2019-01-28T14:13:54.759Z,94361.37
2019-01-28T14:16:21.839Z,94365.56
2019-01-28T14:18:48.953Z,94375.15
2019-01-28T14:21:16.030Z,94371.92
2019-01-28T14:23:43.107Z,94370.56
2019-01-28T14:26:10.157Z,94376.92
2019-01-28T14:28:37.300Z,94375.23
2019-01-28T14:31:04.373Z,94377.32
2019-01-28T14:33:31.428Z,94383.16
2019-01-28T14:35:58.487Z,94385.53
2019-01-28T14:38:25.570Z,94379.17
2019-01-28T14:40:52.654Z,94383.92
2019-01-28T14:43:19.732Z,94384.73
2019-01-28T14:45:46.805Z,94388.23
2019-01-28T14:48:14.082Z,94385.86
2019-01-28T14:50:41.382Z,94404.74
2019-01-28T14:53:08.440Z,94405.27
2019-01-28T14:55:35.617Z,94403.66
2019-01-28T14:58:03.240Z,94395.92
2019-01-28T15:00:32.708Z,94391.33
2019-01-28T15:02:59.820Z,94388.07
2019-01-28T15:05:26.919Z,94393.86
2019-01-28T15:07:54.205Z,94391.96
2019-01-28T15:10:21.291Z,94389.26
2019-01-28T15:12:48.357Z,94392.39
2019-01-28T15:15:17.619Z,94385.15
2019-01-28T15:17:44.711Z,94392.80
2019-01-28T15:20:11.886Z,94395.91
2019-01-28T15:22:39.057Z,94391.84
2019-01-28T15:25:07.026Z,94395.97
2019-01-28T15:27:34.129Z,94399.13
2019-01-28T15:30:01.185Z,94399.56
2019-01-28T15:32:28.255Z,94406.34
2019-01-28T15:34:55.302Z,94403.36
2019-01-28T15:37:22.416Z,94403.30
2019-01-28T15:39:49.540Z,94417.28
2019-01-28T15:42:16.624Z,94412.72
2019-01-28T15:44:43.714Z,94417.65
2019-01-28T15:47:10.814Z,94418.34
2019-01-28T15:49:37.931Z,94416.95
2019-01-28T15:52:05.044Z,94419.84
2019-01-28T15:54:32.116Z,94428.84
2019-01-28T15:56:59.184Z,94428.56
2019-01-28T15:59:26.263Z,94426.20
2019-01-28T16:01:56.222Z,94429.78
2019-01-28T16:04:23.300Z,94433.69
2019-01-28T16:06:50.896Z,94443.39
2019-01-28T16:09:18.022Z,94433.71
2019-01-28T16:11:45.142Z,94431.50
2019-01-28T16:14:12.354Z,94443.69
2019-01-28T16:16:41.821Z,94448.82
2019-01-28T16:19:09.373Z,94456.00
2019-01-28T16:21:36.854Z,94446.09
2019-01-28T16:24:04.185Z,94448.84
2019-01-28T16:26:31.344Z,94452.80
2019-01-28T16:28:58.467Z,94451.19
2019-01-28T16:31:25.609Z,94461.15
2019-01-28T16:33:53.386Z,94461.39
2019-01-28T16:39:08.243Z,94473.83
2019-01-28T16:41:35.353Z,94485.36
2019-01-28T16:44:07.315Z,94479.02
2019-01-28T16:46:34.779Z,94481.84
2019-01-28T16:49:01.953Z,94491.34
2019-01-28T16:51:29.160Z,94491.27
2019-01-28T16:53:57.579Z,94494.66
2019-01-28T16:56:24.719Z,94487.52
2019-01-28T16:58:55.847Z,94497.17
2019-01-28T17:01:23.245Z,94514.69
2019-01-28T17:03:50.851Z,94508.87
2019-01-28T17:06:18.255Z,94503.34
2019-01-28T17:08:46.221Z,94504.89
2019-01-28T17:11:13.423Z,94494.52
2019-01-28T17:13:41.717Z,94506.16
2019-01-28T17:16:08.801Z,94508.55
2019-01-28T17:18:36.832Z,94519.67
2019-01-28T17:21:03.974Z,94508.27
2019-01-28T17:23:31.206Z,94514.83
2019-01-28T17:26:00.429Z,94522.50
2019-01-28T17:28:30.741Z,94522.84
2019-01-28T17:30:57.960Z,94531.34
2019-01-28T17:33:25.094Z,94521.23
2019-01-28T17:35:52.245Z,94537.66
2019-01-28T17:38:19.371Z,94539.21
2019-01-28T17:40:46.613Z,94538.69
2019-01-28T17:43:15.575Z,94529.13
2019-01-28T17:45:42.922Z,94533.91
2019-01-28T17:48:10.421Z,94541.34
2019-01-28T17:50:43.436Z,94543.53
2019-01-28T17:53:08.723Z,94545.81
2019-01-28T17:55:37.225Z,94546.34
2019-01-28T17:58:05.853Z,94557.69
2019-01-28T18:00:39.753Z,94559.47
2019-01-28T18:03:07.125Z,94575.44
2019-01-28T18:08:35.809Z,94569.70
2019-01-28T18:11:03.004Z,94587.45
2019-01-28T18:13:30.122Z,94588.06
2019-01-28T18:15:57.336Z,94589.16
2019-01-28T18:18:24.494Z,94593.23
2019-01-28T18:20:52.253Z,94584.25
2019-01-28T18:23:46.285Z,94585.38
2019-01-28T18:26:13.500Z,94583.63
2019-01-28T18:28:40.783Z,94588.02
2019-01-28T18:31:08.032Z,94585.88
2019-01-28T18:33:35.233Z,94600.00
2019-01-28T18:36:05.742Z,94593.64
2019-01-28T18:38:38.947Z,94603.09
2019-01-28T18:41:06.536Z,94596.12
2019-01-28T18:43:53.324Z,94604.15
2019-01-28T18:46:22.910Z,94609.30
2019-01-28T18:48:50.205Z,94609.20
2019-01-28T18:54:05.383Z,94612.44
2019-01-28T18:56:52.440Z,94627.11
2019-01-28T18:59:19.768Z,94628.06
2019-01-28T19:01:47.114Z,94624.39
2019-01-28T19:04:14.315Z,94628.51
2019-01-28T19:07:02.626Z,94634.27
2019-01-28T19:09:49.559Z,94639.20
2019-01-28T19:12:36.430Z,94636.10
2019-01-28T19:15:14.925Z,94633.09
2019-01-28T19:18:01.788Z,94639.84
2019-01-28T19:20:48.725Z,94633.70
2019-01-28T19:23:16.129Z,94637.88
2019-01-28T19:25:43.527Z,94630.91
2019-01-28T19:30:57.748Z,94641.19
2019-01-28T19:33:27.894Z,94646.69
2019-01-28T19:35:55.670Z,94649.34
2019-01-28T19:38:22.964Z,94643.16
2019-01-28T19:40:54.296Z,94647.34
2019-01-28T19:43:26.190Z,94651.83
2019-01-28T19:45:56.066Z,94653.38
2019-01-28T19:48:23.871Z,94663.36
2019-01-28T19:50:51.735Z,94669.97
2019-01-28T19:53:19.024Z,94671.29
2019-01-28T19:55:47.500Z,94673.67
2019-01-28T19:58:16.187Z,94670.73
2019-01-28T20:00:44.780Z,94679.98
2019-01-28T20:03:14.385Z,94686.30
2019-01-28T20:05:44.099Z,94684.98
2019-01-28T20:08:11.851Z,94687.03
2019-01-28T20:10:43.108Z,94690.19
2019-01-28T20:13:18.738Z,94694.16
2019-01-28T20:15:47.194Z,94701.88
2019-01-28T20:18:15.163Z,94704.52
2019-01-28T20:20:43.904Z,94702.47
2019-01-28T20:23:12.340Z,94706.95
2019-01-28T20:25:44.184Z,94709.59
2019-01-28T20:28:16.846Z,94705.92
2019-01-28T20:30:44.394Z,94715.09
2019-01-28T20:33:33.874Z,94720.17
2019-01-28T20:36:01.371Z,94716.50
2019-01-28T20:38:29.278Z,94721.79
2019-01-28T20:41:00.282Z,94717.06
2019-01-28T20:43:27.734Z,94724.48
2019-01-28T20:45:55.889Z,94728.53
2019-01-28T20:48:25.531Z,94728.41
2019-01-28T20:50:53.207Z,94731.29
2019-01-28T20:53:21.215Z,94733.77
2019-01-28T20:55:50.145Z,94741.44
2019-01-28T20:58:17.676Z,94740.55
2019-01-28T21:00:46.264Z,94742.89
2019-01-28T21:03:13.833Z,94744.44
2019-01-28T21:05:42.063Z,94744.14
2019-01-28T21:08:09.549Z,94752.88
2019-01-28T21:10:36.816Z,94758.98
2019-01-28T21:13:44.887Z,94761.42
2019-01-28T21:16:12.194Z,94756.94
2019-01-28T21:18:39.688Z,94760.17
2019-01-28T21:21:07.199Z,94767.14
2019-01-28T21:26:14.752Z,94773.19
2019-01-28T21:28:42.152Z,94787.74
2019-01-28T21:31:09.316Z,94778.23
2019-01-28T21:33:36.496Z,94782.71
2019-01-28T21:36:31.988Z,94789.63
2019-01-28T21:38:59.112Z,94788.59
2019-01-28T21:41:26.252Z,94790.52
2019-01-28T21:43:53.383Z,94785.52
2019-01-28T21:46:20.983Z,94796.70
2019-01-28T21:48:48.378Z,94793.55
2019-01-28T21:51:15.538Z,94794.66
2019-01-28T21:53:42.666Z,94794.95
2019-01-28T21:56:09.791Z,94799.22
2019-01-28T21:58:36.984Z,94798.48
2019-01-28T22:01:04.303Z,94802.75
2019-01-28T22:03:31.385Z,94802.24
2019-01-28T22:05:58.482Z,94805.19
2019-01-28T22:08:25.585Z,94813.13
2019-01-28T22:10:52.654Z,94811.59
2019-01-28T22:13:19.795Z,94816.88
2019-01-28T22:15:46.935Z,94815.55
2019-01-28T22:18:14.019Z,94815.55
2019-01-28T22:20:41.073Z,94822.69
2019-01-28T22:23:08.181Z,94819.95
2019-01-28T22:25:35.229Z,94827.59
2019-01-28T22:28:02.396Z,94823.33
2019-01-28T22:30:29.439Z,94828.63
2019-01-28T22:32:56.507Z,94830.38
2019-01-28T22:35:23.578Z,94836.18
2019-01-28T22:37:50.662Z,94834.17
2019-01-28T22:40:17.717Z,94837.84
2019-01-28T22:42:44.802Z,94839.47
2019-01-28T22:45:13.587Z,94843.73
2019-01-28T22:47:40.655Z,94840.58
2019-01-28T22:50:10.111Z,94856.75
2019-01-28T22:52:37.330Z,94855.95
2019-01-28T22:55:05.088Z,94860.21
2019-01-28T22:57:32.130Z,94867.12
2019-01-28T22:59:59.216Z,94877.71
2019-01-28T23:02:26.295Z,94872.93
2019-01-28T23:04:53.318Z,94877.41
2019-01-28T23:07:20.375Z,94881.30
2019-01-28T23:09:47.439Z,94885.77
2019-01-28T23:12:14.778Z,94892.91
2019-01-28T23:14:41.842Z,94888.64
2019-01-28T23:17:08.890Z,94886.50
2019-01-28T23:19:35.947Z,94890.26
2019-01-28T23:22:02.989Z,94893.41
2019-01-28T23:24:30.058Z,94899.00
2019-01-28T23:26:57.158Z,94901.35
2019-01-28T23:29:24.240Z,94899.73
2019-01-28T23:31:51.347Z,94901.56
2019-01-28T23:34:18.404Z,94913.77
2019-01-28T23:36:45.489Z,94906.34
2019-01-28T23:39:12.558Z,94909.20
2019-01-28T23:41:39.618Z,94908.91
2019-01-28T23:44:06.674Z,94921.92
2019-01-28T23:46:33.789Z,94922.95
2019-01-28T23:49:00.858Z,94916.33
2019-01-28T23:51:27.902Z,94917.95
2019-01-28T23:53:54.949Z,94920.90
2019-01-28T23:56:21.982Z,94928.02
2019-01-28T23:58:49.023Z,94927.22
